Time;durP1;ratioP1;P1;durP2;ratioP2;P2;SDS_P1;SDS_P2;PMS_P1;PMS_P2;Temp;Humidity;BMP_temperature;BMP_pressure;BME280_temperature;BME280_humidity;BME280_pressure;Samples;Min_cycle;Max_cycle;Signal;HPM_P1;HPM_P2
2023/06/01 00:02:11;;;;;;;5.88;2.15;;;;;;;15.66;61.40;101254.16;4987219;28;20414;-70
2023/06/01 00:04:41;;;;;;;7.55;2.17;;;;;;;15.68;61.80;101254.81;4983764;28;20050;-70
2023/06/01 00:07:10;;;;;;;7.30;2.33;;;;;;;15.66;62.21;101256.84;4981760;28;20133;-70
2023/06/01 00:09:37;;;;;;;7.20;2.00;;;;;;;15.51;63.22;101255.09;4981425;28;20061;-69
2023/06/01 00:12:05;;;;;;;5.10;2.20;;;;;;;15.48;63.52;101259.81;4981525;28;20075;-70
2023/06/01 00:14:32;;;;;;;6.93;2.25;;;;;;;15.64;63.55;101253.50;4980967;28;20047;-70
2023/06/01 00:16:58;;;;;;;11.93;2.22;;;;;;;15.58;63.90;101251.47;4982860;28;20046;-70
2023/06/01 00:19:26;;;;;;;4.85;1.90;;;;;;;15.57;64.41;101255.22;4981213;28;20451;-70
2023/06/01 00:21:55;;;;;;;7.05;2.70;;;;;;;15.58;64.63;101254.19;4982484;28;20046;-70
2023/06/01 00:24:23;;;;;;;7.95;2.28;;;;;;;15.53;64.93;101253.88;4981485;28;20074;-71
2023/06/01 00:26:50;;;;;;;5.82;2.03;;;;;;;15.50;65.28;101251.56;4983893;28;20046;-72
2023/06/01 00:29:16;;;;;;;6.38;2.05;;;;;;;15.45;65.57;101252.06;4980969;28;20101;-71
2023/06/01 00:31:44;;;;;;;8.35;2.33;;;;;;;15.39;66.21;101252.78;4984440;28;20046;-70
2023/06/01 00:34:11;;;;;;;9.02;2.00;;;;;;;15.36;66.39;101255.88;4981362;28;20046;-70
2023/06/01 00:36:38;;;;;;;10.18;2.38;;;;;;;15.31;67.03;101257.41;4982874;28;20050;-69
2023/06/01 00:39:05;;;;;;;9.98;1.92;;;;;;;15.26;67.77;101252.56;4981970;28;20401;-71
2023/06/01 00:41:32;;;;;;;8.82;2.78;;;;;;;15.21;68.40;101253.06;4982544;28;20047;-71
2023/06/01 00:44:00;;;;;;;7.70;2.20;;;;;;;15.16;69.20;101252.78;4982135;28;20509;-69
2023/06/01 00:46:29;;;;;;;3.97;1.90;;;;;;;15.12;70.01;101253.28;4981684;28;20055;-71
2023/06/01 00:48:57;;;;;;;10.82;2.58;;;;;;;15.12;70.67;101248.75;4983063;28;20046;-69
2023/06/01 00:51:25;;;;;;;5.03;2.00;;;;;;;15.06;71.57;101249.44;4981368;28;20059;-70
2023/06/01 00:53:52;;;;;;;9.95;2.20;;;;;;;15.05;72.21;101250.47;4989697;28;20057;-70
2023/06/01 00:56:18;;;;;;;7.88;2.05;;;;;;;14.97;73.52;101245.09;4990791;28;20046;-70
2023/06/01 00:58:45;;;;;;;6.40;1.88;;;;;;;14.89;74.95;101247.84;4992311;28;20568;-70
2023/06/01 01:01:18;;;;;;;4.50;2.00;;;;;;;14.89;75.66;101247.84;4991249;28;20100;-70
2023/06/01 01:03:49;;;;;;;5.55;2.17;;;;;;;14.81;76.95;101255.97;4992613;28;20100;-70
2023/06/01 01:10:03;;;;;;;;;;;;;;;14.75;79.23;101252.13;4991018;28;20049;-70
2023/06/01 01:12:47;;;;;;;4.20;2.03;;;;;;;14.66;80.52;101243.16;4991493;28;19922;-71
2023/06/01 01:15:37;;;;;;;7.65;2.03;;;;;;;14.62;82.17;101263.44;4991934;28;20050;-70
2023/06/01 01:18:09;;;;;;;7.97;2.40;;;;;;;14.56;83.56;101253.31;4991419;28;20528;-70
2023/06/01 01:20:40;;;;;;;8.95;2.55;;;;;;;14.52;84.25;101252.00;4991548;28;20162;-70
2023/06/01 01:23:24;;;;;;;14.00;2.53;;;;;;;14.49;84.97;101246.94;4991266;28;20129;-70
2023/06/01 01:26:19;;;;;;;5.55;2.35;;;;;;;14.43;85.94;101248.47;4991636;28;20133;-69
2023/06/01 01:28:56;;;;;;;10.13;2.20;;;;;;;14.39;86.54;101246.28;4991172;28;20117;-70
2023/06/01 01:31:24;;;;;;;3.63;1.48;;;;;;;14.36;87.86;101246.63;4991240;28;20081;-71
2023/06/01 01:33:55;;;;;;;10.68;2.53;;;;;;;14.30;89.01;101251.72;4991632;28;20403;-69
2023/06/01 01:36:23;;;;;;;4.90;1.73;;;;;;;14.29;90.50;101251.91;4991513;28;20129;-69
2023/06/01 01:38:50;;;;;;;5.05;2.00;;;;;;;14.24;91.80;101243.47;4991493;28;20077;-69
2023/06/01 01:41:17;;;;;;;10.25;2.28;;;;;;;14.21;93.41;101246.50;4991451;28;20054;-69
2023/06/01 01:43:44;;;;;;;9.75;2.17;;;;;;;14.15;95.76;101245.34;4991615;28;20142;-69
2023/06/01 01:46:25;;;;;;;7.30;2.72;;;;;;;14.11;97.51;101238.56;4990534;28;20049;-69
2023/06/01 01:49:12;;;;;;;5.78;2.25;;;;;;;14.05;99.25;101237.41;4991507;28;20560;-69
2023/06/01 01:51:44;;;;;;;12.43;2.90;;;;;;;14.03;100.00;101235.91;4990585;28;20053;-71
2023/06/01 01:54:12;;;;;;;7.13;2.20;;;;;;;13.99;100.00;101231.88;4990783;28;20077;-69
2023/06/01 01:56:40;;;;;;;8.93;2.13;;;;;;;13.92;100.00;101234.41;4991192;28;20442;-69
2023/06/01 01:59:08;;;;;;;8.48;2.47;;;;;;;13.90;100.00;101235.56;4990652;28;20062;-69
2023/06/01 02:01:35;;;;;;;6.40;2.40;;;;;;;13.88;100.00;101230.34;4982680;28;20117;-68
2023/06/01 02:04:07;;;;;;;9.20;2.58;;;;;;;13.82;100.00;101233.72;4971608;28;20058;-69
2023/06/01 02:06:33;;;;;;;7.25;2.45;;;;;;;13.67;100.00;101228.13;4971288;28;20419;-70
2023/06/01 02:09:01;;;;;;;7.82;2.42;;;;;;;13.71;100.00;101231.34;4971796;28;20094;-69
2023/06/01 04:56:16;;;;;;;25.83;10.30;;;;;;;11.58;100.00;101245.59;6092849;23;20030;31
2023/06/01 04:58:44;;;;;;;20.83;8.95;;;;;;;11.51;100.00;101244.50;4980466;28;20042;-62
2023/06/01 05:01:15;;;;;;;27.08;9.85;;;;;;;11.45;100.00;101236.09;4990165;28;20120;-63
2023/06/01 05:03:43;;;;;;;23.27;9.47;;;;;;;11.42;100.00;101247.13;4989102;28;20469;-63
2023/06/01 05:06:11;;;;;;;27.63;10.63;;;;;;;11.42;100.00;101239.06;4990472;28;20632;-63
2023/06/01 05:08:39;;;;;;;20.40;8.75;;;;;;;11.41;100.00;101240.09;4991031;28;20082;-62
2023/06/01 05:11:07;;;;;;;28.65;9.25;;;;;;;11.38;100.00;101243.06;4990760;28;20042;-63
2023/06/01 05:13:44;;;;;;;17.75;9.93;;;;;;;11.35;100.00;101246.06;4990636;28;20050;-63
2023/06/01 05:16:10;;;;;;;27.52;11.10;;;;;;;11.42;100.00;101239.06;4972596;28;20047;-63
2023/06/01 05:18:38;;;;;;;28.33;10.57;;;;;;;11.41;100.00;101240.09;4990185;28;20050;-64
2023/06/01 05:21:04;;;;;;;33.50;14.13;;;;;;;11.46;100.00;101242.31;4990452;28;20054;-64
2023/06/01 05:23:32;;;;;;;22.00;8.82;;;;;;;11.37;100.00;101240.53;4990951;28;20085;-64
2023/06/01 05:26:02;;;;;;;21.75;8.88;;;;;;;11.33;100.00;101239.97;4990889;28;20049;-64
2023/06/01 05:28:30;;;;;;;18.77;8.30;;;;;;;11.32;100.00;101240.16;4991317;28;20046;-64
2023/06/01 05:31:00;;;;;;;12.27;6.47;;;;;;;11.14;100.00;101249.03;4991383;28;20101;-64
2023/06/01 05:33:27;;;;;;;22.58;8.05;;;;;;;11.26;100.00;101240.75;4990757;28;20480;-63
2023/06/01 05:35:54;;;;;;;18.63;8.40;;;;;;;11.26;100.00;101236.22;4991711;28;20050;-63
2023/06/01 05:38:20;;;;;;;20.15;8.52;;;;;;;11.22;100.00;101246.41;4990962;28;20074;-64
2023/06/01 05:40:47;;;;;;;29.83;8.40;;;;;;;11.24;100.00;101248.97;4989150;28;20054;-64
2023/06/01 05:43:15;;;;;;;16.65;7.20;;;;;;;11.37;100.00;101249.41;4991892;28;20124;-64
2023/06/01 05:45:41;;;;;;;16.30;7.05;;;;;;;11.44;100.00;101255.03;4991834;28;20391;-64
2023/06/01 05:48:08;;;;;;;18.58;7.80;;;;;;;11.45;100.00;101254.06;4991259;28;20050;-63
2023/06/01 05:50:34;;;;;;;15.18;7.03;;;;;;;11.61;100.00;101256.03;4990338;28;20058;-64
2023/06/01 05:53:01;;;;;;;11.80;6.53;;;;;;;11.52;100.00;101256.94;4989895;28;20490;-64
2023/06/01 05:55:27;;;;;;;25.23;7.78;;;;;;;11.68;100.00;101260.66;4990148;28;20130;-63
2023/06/01 05:57:54;;;;;;;20.80;7.30;;;;;;;11.62;100.00;101263.97;4990401;28;20053;-64
2023/06/01 06:00:21;;;;;;;19.50;6.70;;;;;;;11.71;100.00;101259.53;4990466;28;20471;-65
2023/06/01 06:02:47;;;;;;;17.48;6.93;;;;;;;11.73;100.00;101262.06;4972927;28;20120;-64
2023/06/01 06:05:14;;;;;;;18.20;6.53;;;;;;;11.79;100.00;101259.56;4990288;28;20473;-64
2023/06/01 06:07:41;;;;;;;14.43;6.47;;;;;;;11.85;100.00;101258.97;4990229;28;20498;-64
2023/06/01 06:10:08;;;;;;;14.65;7.05;;;;;;;11.89;100.00;101254.97;4990488;28;20042;-64
2023/06/01 06:12:35;;;;;;;17.52;6.28;;;;;;;12.10;100.00;101251.91;4990351;28;20050;-63
2023/06/01 06:15:01;;;;;;;13.13;5.90;;;;;;;12.11;100.00;101248.25;4990246;28;20509;-64
2023/06/01 06:17:28;;;;;;;18.58;6.60;;;;;;;12.10;100.00;101256.47;4989746;28;20046;-63
2023/06/01 06:19:54;;;;;;;19.35;6.85;;;;;;;12.02;100.00;101259.09;4990143;28;20509;-64
2023/06/01 06:22:21;;;;;;;20.13;6.35;;;;;;;12.02;100.00;101253.72;4990908;28;20058;-64
2023/06/01 06:24:47;;;;;;;18.60;5.95;;;;;;;11.96;100.00;101257.88;4989911;28;20100;-65
2023/06/01 06:27:14;;;;;;;17.98;6.50;;;;;;;12.17;100.00;101260.22;4990056;28;20054;-64
2023/06/01 06:29:41;;;;;;;22.70;6.25;;;;;;;12.18;100.00;101243.09;4989998;28;20074;-64
2023/06/01 06:32:07;;;;;;;17.20;7.32;;;;;;;12.14;100.00;101252.44;4990140;28;20046;-64
2023/06/01 06:34:37;;;;;;;18.33;6.10;;;;;;;12.08;100.00;101250.41;4989653;28;20137;-64
2023/06/01 06:37:06;;;;;;;20.55;7.03;;;;;;;12.17;100.00;101252.13;4970763;28;20082;-65
2023/06/01 06:39:34;;;;;;;22.85;7.03;;;;;;;12.19;100.00;101255.53;4970067;28;20054;-64
2023/06/01 06:42:03;;;;;;;18.73;6.60;;;;;;;12.37;100.00;101242.84;4970097;28;20461;-64
2023/06/01 06:44:31;;;;;;;12.02;5.82;;;;;;;12.45;100.00;101251.97;4977383;28;20080;-65
2023/06/01 06:47:00;;;;;;;11.30;5.90;;;;;;;12.63;100.00;101256.28;4989254;28;20050;-65
2023/06/01 06:49:28;;;;;;;22.70;5.93;;;;;;;12.47;100.00;101256.19;4989120;28;20054;-65
2023/06/01 06:51:55;;;;;;;18.00;6.22;;;;;;;12.46;100.00;101253.69;4989900;28;20128;-64
2023/06/01 06:54:22;;;;;;;20.42;5.97;;;;;;;12.52;100.00;101253.03;4979488;28;20059;-66
2023/06/01 06:56:49;;;;;;;20.27;6.72;;;;;;;12.41;100.00;101254.97;4970066;28;20497;-64
2023/06/01 06:59:16;;;;;;;24.73;6.45;;;;;;;12.42;100.00;101250.47;4974344;28;20042;-64
2023/06/01 07:01:43;;;;;;;21.10;6.47;;;;;;;12.69;100.00;101252.09;4989298;28;20097;-64
2023/06/01 07:04:09;;;;;;;16.23;6.13;;;;;;;12.57;100.00;101256.94;4988366;28;20042;-65
2023/06/01 07:06:37;;;;;;;15.90;6.43;;;;;;;12.59;100.00;101257.63;4993295;28;20141;-65
2023/06/01 07:09:05;;;;;;;21.25;6.53;;;;;;;12.82;100.00;101252.53;4993701;28;20466;-67
2023/06/01 07:11:32;;;;;;;16.98;5.78;;;;;;;12.82;100.00;101252.53;4993743;28;20511;-66
2023/06/01 07:13:59;;;;;;;13.93;5.25;;;;;;;12.88;100.00;101251.03;4991688;28;20560;-65
2023/06/01 07:16:25;;;;;;;9.52;5.03;;;;;;;12.90;100.00;101253.56;4993116;28;20054;-64
2023/06/01 07:18:52;;;;;;;12.13;5.25;;;;;;;12.94;100.00;101254.91;4994079;28;20068;-66
2023/06/01 07:21:19;;;;;;;15.75;6.28;;;;;;;13.09;100.00;101256.00;4993912;28;20494;-67
2023/06/01 07:23:46;;;;;;;19.77;6.20;;;;;;;13.50;100.00;101256.09;4992313;28;20050;-65
2023/06/01 07:26:13;;;;;;;15.02;6.05;;;;;;;13.86;99.93;101258.50;4993696;28;20050;-66
2023/06/01 07:28:41;;;;;;;19.67;7.70;;;;;;;14.30;93.34;101248.19;4986037;28;20464;-65
2023/06/01 07:31:08;;;;;;;13.80;5.95;;;;;;;14.61;88.29;101242.03;4986127;28;20498;-66
2023/06/01 07:33:38;;;;;;;13.52;5.25;;;;;;;15.02;84.60;101245.41;4991690;28;20165;-64
2023/06/01 07:36:06;;;;;;;23.15;5.70;;;;;;;15.10;82.22;101239.97;4976298;28;20046;-66
2023/06/01 07:38:33;;;;;;;19.92;5.32;;;;;;;14.98;83.01;101236.81;4993276;28;20473;-66
2023/06/01 07:40:59;;;;;;;16.98;4.90;;;;;;;15.09;81.83;101241.00;4993493;28;20065;-65
2023/06/01 07:43:27;;;;;;;14.05;5.15;;;;;;;15.40;78.67;101235.56;4992000;28;20062;-65
2023/06/01 07:45:54;;;;;;;11.95;5.15;;;;;;;15.80;74.58;101247.09;4994590;28;20046;-69
2023/06/01 07:48:21;;;;;;;19.23;5.35;;;;;;;15.97;73.49;101237.00;4977055;28;20050;-64
2023/06/01 07:50:47;;;;;;;18.52;4.80;;;;;;;15.84;73.44;101248.41;4993304;28;20050;-64
2023/06/01 07:53:14;;;;;;;13.02;4.63;;;;;;;16.13;72.77;101250.38;4993649;28;20054;-64
2023/06/01 07:55:41;;;;;;;18.00;5.47;;;;;;;16.76;68.09;101241.94;4993183;28;20517;-64
2023/06/01 07:58:08;;;;;;;16.98;5.32;;;;;;;16.57;67.81;101238.75;4992495;28;20057;-64
2023/06/01 08:00:35;;;;;;;10.05;3.95;;;;;;;16.77;66.68;101232.75;4992984;28;20077;-62
2023/06/01 08:03:05;;;;;;;12.23;3.55;;;;;;;17.35;63.95;101226.38;4993341;28;20069;-63
2023/06/01 08:05:34;;;;;;;11.47;4.10;;;;;;;17.34;63.31;101229.31;4992758;28;20465;-63
2023/06/01 08:08:04;;;;;;;14.95;4.30;;;;;;;17.39;62.22;101220.59;4992928;28;20070;-64
2023/06/01 08:10:30;;;;;;;11.38;3.83;;;;;;;17.75;60.95;101215.06;4992884;28;20474;-65
2023/06/01 08:12:57;;;;;;;12.60;4.00;;;;;;;17.50;61.34;101214.63;4993080;28;20050;-64
2023/06/01 08:15:28;;;;;;;14.07;4.85;;;;;;;17.73;60.83;101220.69;4993011;28;20050;-62
2023/06/01 08:17:56;;;;;;;15.52;4.05;;;;;;;17.60;59.80;101216.00;4992639;28;20046;-66
2023/06/01 08:20:23;;;;;;;12.90;4.63;;;;;;;17.68;59.75;101215.00;4992859;28;20050;-65
2023/06/01 08:22:50;;;;;;;9.85;3.30;;;;;;;18.00;58.63;101215.50;4993269;28;20127;-63
2023/06/01 08:25:18;;;;;;;6.95;3.58;;;;;;;18.72;56.78;101211.53;4992870;28;20470;-62
2023/06/01 08:27:44;;;;;;;14.68;3.92;;;;;;;18.02;57.69;101211.53;4992281;28;20486;-63
2023/06/01 08:30:11;;;;;;;10.95;3.95;;;;;;;18.64;56.55;101211.72;4993153;28;20038;-63
2023/06/01 08:32:38;;;;;;;14.93;3.83;;;;;;;18.62;55.75;101208.38;4992550;28;20469;-63
2023/06/01 08:35:07;;;;;;;12.07;4.30;;;;;;;18.29;56.92;101200.88;4992526;28;20486;-63
2023/06/01 08:37:34;;;;;;;13.55;3.80;;;;;;;18.81;55.10;101199.47;4991337;28;20465;-61
2023/06/01 08:40:04;;;;;;;16.55;3.92;;;;;;;19.24;54.33;101205.50;4991352;28;20355;-62
2023/06/01 08:42:53;;;;;;;7.60;3.33;;;;;;;19.47;52.88;101188.78;4991477;28;20073;-63
2023/06/01 08:45:20;;;;;;;9.43;3.55;;;;;;;19.43;53.07;101194.84;4992087;28;20494;-63
2023/06/01 08:47:48;;;;;;;8.73;3.63;;;;;;;19.44;52.21;101191.91;4991903;28;20054;-63
2023/06/01 08:50:16;;;;;;;13.07;3.67;;;;;;;19.78;51.15;101187.34;4992009;28;20505;-62
2023/06/01 08:52:45;;;;;;;8.88;4.15;;;;;;;20.11;50.35;101189.22;4991940;28;20054;-63
2023/06/01 08:55:13;;;;;;;11.25;3.75;;;;;;;20.06;50.26;101186.28;4992123;28;20100;-62
2023/06/01 08:57:41;;;;;;;12.60;3.90;;;;;;;20.17;49.39;101191.91;4991508;28;20086;-64
2023/06/01 09:00:11;;;;;;;10.25;4.10;;;;;;;20.53;48.71;101181.59;4992138;28;20042;-64
2023/06/01 09:02:42;;;;;;;15.60;3.95;;;;;;;20.04;49.16;101182.94;4992112;28;20058;-64
2023/06/01 09:05:11;;;;;;;8.43;3.88;;;;;;;20.55;48.06;101180.31;4992047;28;20133;-63
2023/06/01 09:07:38;;;;;;;15.98;4.03;;;;;;;20.56;47.97;101182.00;4991925;28;20054;-63
2023/06/01 09:10:05;;;;;;;9.02;3.80;;;;;;;20.57;46.95;101166.47;4991368;28;20075;-64
2023/06/01 09:12:33;;;;;;;12.82;4.47;;;;;;;19.78;49.06;101178.34;4992220;28;20056;-63
2023/06/01 09:15:17;;;;;;;7.78;3.47;;;;;;;20.27;48.33;101164.22;4991849;28;20104;-63
2023/06/01 09:17:46;;;;;;;8.55;4.55;;;;;;;20.08;48.65;101167.84;4991983;28;20050;-63
2023/06/01 09:20:21;;;;;;;7.07;3.42;;;;;;;20.95;46.87;101168.41;4991438;28;20053;-64
2023/06/01 09:22:48;;;;;;;13.05;4.85;;;;;;;21.09;46.73;101164.53;4991964;28;20096;-63
2023/06/01 09:25:14;;;;;;;11.18;3.58;;;;;;;21.58;45.76;101163.78;4991878;28;20518;-64
2023/06/01 09:27:46;;;;;;;11.50;4.03;;;;;;;22.08;44.38;101157.44;4989725;28;20054;-64
2023/06/01 09:30:13;;;;;;;11.65;3.75;;;;;;;22.13;44.02;101160.34;4991825;28;20046;-64
2023/06/01 09:32:41;;;;;;;13.25;5.05;;;;;;;21.35;45.05;101148.00;4991014;28;20131;-64
2023/06/01 09:35:09;;;;;;;11.20;4.40;;;;;;;22.40;44.09;101140.94;4990970;28;20072;-64
2023/06/01 09:37:37;;;;;;;12.05;4.82;;;;;;;22.55;43.67;101139.50;4991255;28;20046;-64
2023/06/01 09:40:24;;;;;;;14.93;4.65;;;;;;;22.77;42.81;101133.53;4991164;28;20049;-64
2023/06/01 09:42:51;;;;;;;13.65;4.20;;;;;;;23.83;40.75;101133.81;4991604;28;20125;-64
2023/06/01 09:45:20;;;;;;;11.98;4.47;;;;;;;23.79;39.93;101136.19;4991291;28;20049;-65
2023/06/01 09:47:48;;;;;;;12.93;4.75;;;;;;;23.20;40.81;101130.59;4991059;28;20077;-64
2023/06/01 09:50:35;;;;;;;13.32;4.63;;;;;;;22.74;41.25;101129.38;4991185;28;20074;-64
2023/06/01 09:53:03;;;;;;;12.40;5.65;;;;;;;22.45;42.26;101124.66;4991430;28;20478;-64
2023/06/01 09:55:29;;;;;;;9.50;4.72;;;;;;;22.75;41.82;101130.19;4990603;28;20069;-64
2023/06/01 09:58:22;;;;;;;10.48;4.95;;;;;;;23.17;40.60;101127.50;4990871;28;20050;-65
2023/06/01 10:00:50;;;;;;;11.38;4.80;;;;;;;23.33;40.14;101125.97;4990954;28;20043;-65
2023/06/01 10:03:21;;;;;;;9.40;5.78;;;;;;;23.29;39.89;101122.03;4990152;28;20069;-66
2023/06/01 10:05:49;;;;;;;12.73;5.78;;;;;;;23.46;39.56;101118.38;4991102;28;20129;-64
2023/06/01 10:08:17;;;;;;;11.07;5.53;;;;;;;23.18;39.60;101112.75;4991119;28;20042;-65
2023/06/01 10:10:47;;;;;;;16.00;5.80;;;;;;;23.21;39.68;101118.59;4990607;28;20498;-64
2023/06/01 10:13:14;;;;;;;11.82;5.90;;;;;;;24.47;38.07;101109.16;4989687;28;20498;-62
2023/06/01 10:15:42;;;;;;;12.02;5.50;;;;;;;23.89;38.53;101119.97;4990484;28;20156;-64
2023/06/01 10:18:08;;;;;;;19.05;6.07;;;;;;;23.30;39.20;101108.16;4989125;28;20506;-64
2023/06/01 10:20:37;;;;;;;12.98;5.65;;;;;;;23.57;38.75;101108.50;4990292;28;20065;-62
2023/06/01 10:23:04;;;;;;;12.93;5.78;;;;;;;23.86;38.55;101106.75;4990324;28;20073;-64
2023/06/01 10:25:47;;;;;;;9.23;5.63;;;;;;;23.45;39.13;101096.72;4988650;28;20528;-64
2023/06/01 10:28:16;;;;;;;11.95;5.75;;;;;;;23.58;38.82;101101.16;4990406;28;20054;-63
2023/06/01 10:30:42;;;;;;;9.40;5.60;;;;;;;24.00;38.33;101106.50;4990358;28;20592;-64
2023/06/01 10:33:09;;;;;;;14.52;5.25;;;;;;;24.35;37.57;101100.94;4990271;28;20070;-63
2023/06/01 10:35:41;;;;;;;12.45;5.63;;;;;;;23.58;38.69;101104.72;4989139;28;20122;-64
2023/06/01 10:38:09;;;;;;;12.52;6.40;;;;;;;23.83;38.49;101098.19;4990157;28;20469;-64
2023/06/01 10:40:37;;;;;;;13.80;6.05;;;;;;;22.78;39.88;101097.75;4989833;28;20498;-63
2023/06/01 10:43:04;;;;;;;9.88;5.90;;;;;;;22.86;39.91;101096.56;4989734;28;20042;-63
2023/06/01 10:45:33;;;;;;;15.07;5.95;;;;;;;22.91;39.97;101093.13;4990496;28;20046;-63
2023/06/01 10:48:04;;;;;;;11.18;6.40;;;;;;;22.87;39.86;101084.56;4989776;28;20508;-62
2023/06/01 10:50:31;;;;;;;12.63;6.72;;;;;;;22.55;40.34;101093.00;4989267;28;20054;-63
2023/06/01 10:53:28;;;;;;;13.07;6.20;;;;;;;21.74;41.34;101077.75;4990547;28;20054;-63
2023/06/01 10:56:16;;;;;;;13.82;6.15;;;;;;;21.75;41.88;101087.59;4989965;28;20054;-63
2023/06/01 10:58:43;;;;;;;15.23;6.95;;;;;;;22.23;41.32;101078.69;4990172;28;20145;-62
2023/06/01 11:01:17;;;;;;;14.88;5.93;;;;;;;22.05;41.48;101084.16;4988980;28;20065;-62
2023/06/01 11:03:46;;;;;;;14.55;7.18;;;;;;;21.93;41.87;101083.25;4970863;28;20437;-62
2023/06/01 11:06:25;;;;;;;14.68;7.35;;;;;;;21.38;42.54;101073.88;4970763;28;20581;-63
2023/06/01 11:08:55;;;;;;;10.02;6.50;;;;;;;21.50;42.57;101065.78;4970675;28;20046;-63
2023/06/01 11:11:55;;;;;;;14.30;6.78;;;;;;;21.31;42.61;101077.72;4970148;28;20102;-63
2023/06/01 11:14:25;;;;;;;14.88;6.20;;;;;;;20.73;43.97;101073.31;4971163;28;20051;-64
2023/06/01 11:16:54;;;;;;;16.42;6.80;;;;;;;20.94;43.51;101079.44;4970292;28;20047;-61
2023/06/01 11:19:24;;;;;;;15.05;7.30;;;;;;;20.52;44.46;101068.16;4970865;28;20141;-64
2023/06/01 11:22:00;;;;;;;18.35;7.43;;;;;;;20.48;44.79;101067.75;4970624;28;20049;-62
2023/06/01 11:24:35;;;;;;;10.93;6.22;;;;;;;20.70;44.45;101061.97;4970138;28;20093;-65
2023/06/01 11:27:07;;;;;;;13.05;5.63;;;;;;;20.76;44.54;101061.09;4970531;28;20126;-63
2023/06/01 11:29:34;;;;;;;17.25;6.68;;;;;;;20.48;45.18;101054.13;4970237;28;20422;-64
2023/06/01 11:32:03;;;;;;;11.70;6.30;;;;;;;20.44;45.34;101059.19;4970909;28;20054;-63
2023/06/01 11:34:38;;;;;;;13.65;6.40;;;;;;;20.09;45.38;101058.69;4969947;28;20688;-63
2023/06/01 11:37:12;;;;;;;11.30;5.70;;;;;;;20.24;44.65;101054.84;4970306;28;20554;-63
2023/06/01 11:39:40;;;;;;;11.20;5.75;;;;;;;20.35;44.77;101055.03;4969994;28;20050;-63
2023/06/01 11:42:15;;;;;;;13.35;5.88;;;;;;;19.98;45.35;101053.91;4970955;28;20121;-63
2023/06/01 11:44:43;;;;;;;13.10;5.97;;;;;;;19.64;46.05;101046.84;4970299;28;20466;-63
2023/06/01 11:47:11;;;;;;;13.30;5.80;;;;;;;19.57;46.74;101040.59;4970667;28;20054;-61
2023/06/01 11:49:48;;;;;;;13.90;6.25;;;;;;;19.35;47.61;101042.72;4959524;28;20054;-62
2023/06/01 11:52:16;;;;;;;10.60;5.68;;;;;;;19.29;47.23;101044.38;4973443;28;21238;-62
2023/06/01 11:54:43;;;;;;;10.35;5.38;;;;;;;19.19;47.81;101041.25;4973947;28;20105;-62
2023/06/01 11:57:10;;;;;;;16.17;6.65;;;;;;;19.24;47.92;101044.16;4973138;28;20047;-62
2023/06/01 11:59:40;;;;;;;13.77;5.90;;;;;;;19.28;48.52;101031.84;4974098;28;20051;-61
2023/06/01 12:02:27;;;;;;;10.57;5.13;;;;;;;19.21;48.27;101040.00;4974071;28;20050;-63
2023/06/01 12:04:57;;;;;;;13.25;5.30;;;;;;;19.08;48.93;101041.88;4974196;28;20039;-62
2023/06/01 12:07:24;;;;;;;15.80;5.70;;;;;;;19.05;48.99;101042.28;4957124;28;20052;-62
2023/06/01 12:09:53;;;;;;;16.38;5.45;;;;;;;18.89;48.70;101044.31;4974099;28;20126;-63
2023/06/01 12:12:24;;;;;;;13.23;5.20;;;;;;;18.78;48.73;101036.78;4973721;28;20077;-63
2023/06/01 12:14:51;;;;;;;13.50;4.90;;;;;;;18.81;48.44;101036.38;4973931;28;20046;-63
2023/06/01 12:17:18;;;;;;;15.75;5.32;;;;;;;18.75;48.30;101037.19;4973239;28;20122;-63
2023/06/01 12:19:50;;;;;;;11.43;5.00;;;;;;;18.85;48.25;101034.91;4973157;28;20080;-63
2023/06/01 12:22:17;;;;;;;13.48;5.28;;;;;;;18.73;49.09;101033.88;4973223;28;20097;-62
2023/06/01 12:24:44;;;;;;;15.95;5.35;;;;;;;18.63;49.37;101020.69;4973700;28;20126;-62
2023/06/01 12:27:20;;;;;;;19.75;8.77;;;;;;;18.82;49.47;101010.84;4973018;28;20047;-64
2023/06/01 12:29:50;;;;;;;9.57;5.15;;;;;;;18.73;49.77;101020.28;4972917;28;20454;-62
2023/06/01 12:32:18;;;;;;;12.50;4.72;;;;;;;18.63;49.79;101019.84;4973387;28;20053;-72
2023/06/01 12:35:02;;;;;;;9.70;4.85;;;;;;;18.65;49.51;101009.59;4974951;28;20055;-72
2023/06/01 12:37:29;;;;;;;8.80;4.93;;;;;;;18.65;49.78;101017.75;4974064;28;20042;-71
2023/06/01 12:39:56;;;;;;;8.52;5.00;;;;;;;18.72;49.95;101005.00;4975602;28;20050;-72
2023/06/01 12:42:38;;;;;;;14.02;5.32;;;;;;;18.71;50.52;101014.19;4978793;28;20410;-71
2023/06/01 12:45:07;;;;;;;17.33;5.30;;;;;;;18.64;50.74;101003.31;4973912;28;20439;-72
2023/06/01 12:47:38;;;;;;;17.58;4.88;;;;;;;18.77;50.55;101002.50;4956131;28;20054;-69
2023/06/01 12:50:09;;;;;;;16.35;4.85;;;;;;;18.78;50.38;101001.44;4973219;28;20496;-69
2023/06/01 12:52:36;;;;;;;;;;;;;;;18.75;50.37;100999.97;4973808;28;20046;-69
2023/06/01 12:55:04;;;;;;;14.48;5.03;;;;;;;18.67;50.85;100997.47;4973035;28;19922;-70
2023/06/01 12:57:32;;;;;;;10.85;4.68;;;;;;;18.72;50.99;100989.56;4973024;28;20125;-68
2023/06/01 12:59:59;;;;;;;8.07;4.32;;;;;;;18.66;51.36;100992.25;4972816;28;20078;-70
2023/06/01 13:02:26;;;;;;;11.88;4.50;;;;;;;18.72;51.17;100999.56;4984812;28;20105;-65
2023/06/01 13:04:53;;;;;;;12.13;4.68;;;;;;;18.86;51.07;100990.41;4992762;28;20512;-71
2023/06/01 13:07:23;;;;;;;9.70;4.15;;;;;;;18.68;51.21;100993.69;4992121;28;20054;-69
2023/06/01 13:09:50;;;;;;;10.20;4.05;;;;;;;18.62;51.51;100999.13;4992456;28;20042;-68
2023/06/01 13:12:17;;;;;;;10.65;4.43;;;;;;;18.64;51.30;100991.63;4992219;28;20434;-67
2023/06/01 13:14:44;;;;;;;10.07;3.88;;;;;;;18.66;50.75;100990.38;4992149;28;20100;-70
2023/06/01 13:17:10;;;;;;;14.48;4.10;;;;;;;18.67;51.21;100994.75;4991961;28;20046;-69
2023/06/01 13:19:37;;;;;;;16.75;4.28;;;;;;;18.67;50.37;100992.03;4992180;28;20050;-70
2023/06/01 13:22:04;;;;;;;13.82;4.43;;;;;;;18.62;50.61;100993.69;4992156;28;20066;-69
2023/06/01 13:24:30;;;;;;;15.10;3.92;;;;;;;18.56;50.20;100989.94;4991678;28;20495;-69
2023/06/01 13:27:14;;;;;;;13.85;4.63;;;;;;;18.71;50.12;100985.13;4991824;28;20413;-69
2023/06/01 13:29:41;;;;;;;12.70;4.03;;;;;;;18.57;50.46;100979.91;4991463;28;20108;-69
2023/06/01 13:32:08;;;;;;;9.07;3.63;;;;;;;18.65;50.43;100976.97;4992231;28;20133;-69
2023/06/01 13:34:35;;;;;;;16.45;3.97;;;;;;;18.79;49.93;100975.94;4991126;28;20054;-69
2023/06/01 13:37:02;;;;;;;12.57;3.80;;;;;;;18.59;50.82;100978.66;4991742;28;20053;-69
2023/06/01 13:39:29;;;;;;;10.20;3.55;;;;;;;18.69;50.96;100976.38;4991943;28;20410;-70
2023/06/01 13:41:56;;;;;;;12.85;4.05;;;;;;;18.73;51.23;100974.06;4992006;28;20058;-65
2023/06/01 13:44:23;;;;;;;11.32;4.38;;;;;;;18.64;50.90;100976.16;4991935;28;20445;-68
2023/06/01 13:46:50;;;;;;;11.52;4.15;;;;;;;18.51;50.46;100973.41;4990765;28;20101;-68
2023/06/01 13:49:16;;;;;;;14.15;4.00;;;;;;;18.53;49.42;100983.03;4974224;28;20085;-69
2023/06/01 13:51:43;;;;;;;13.40;3.90;;;;;;;18.49;49.49;100979.06;4991899;28;20050;-68
2023/06/01 13:54:12;;;;;;;13.63;4.35;;;;;;;18.60;49.35;100974.06;4992050;28;20066;-69
2023/06/01 13:56:39;;;;;;;9.52;3.90;;;;;;;18.58;49.41;100970.69;4991353;28;20718;-68
2023/06/01 13:59:05;;;;;;;10.00;4.18;;;;;;;18.55;49.17;100967.38;4991973;28;20453;-70
2023/06/01 14:01:32;;;;;;;20.60;4.38;;;;;;;18.53;49.23;100966.72;4969553;28;20050;-70
2023/06/01 14:03:59;;;;;;;13.50;4.10;;;;;;;18.57;48.99;100963.59;4972640;28;20400;-69
2023/06/01 14:06:25;;;;;;;11.18;4.38;;;;;;;18.37;49.29;100969.81;4972648;28;20057;-67
2023/06/01 14:08:52;;;;;;;12.55;3.97;;;;;;;18.52;48.76;100965.06;4972758;28;20046;-67
2023/06/01 14:11:18;;;;;;;8.88;3.67;;;;;;;18.45;49.27;100966.94;4972171;28;20483;-68
2023/06/01 14:13:45;;;;;;;15.50;4.38;;;;;;;18.66;48.77;100956.94;4971584;28;20047;-70
2023/06/01 14:16:11;;;;;;;16.42;4.05;;;;;;;18.56;48.91;100954.63;4972195;28;20073;-70